createdAt,value
2023-02-19T00:00:44.555Z,100.00
2023-02-19T00:02:49.021Z,100.00
2023-02-19T00:04:51.745Z,100.00
2023-02-19T00:06:54.454Z,100.00
2023-02-19T00:08:57.463Z,100.00
2023-02-19T00:11:06.292Z,100.00
2023-02-19T00:13:09.062Z,100.00
2023-02-19T00:15:11.733Z,100.00
2023-02-19T00:17:14.416Z,100.00
2023-02-19T00:19:19.044Z,100.00
2023-02-19T00:21:22.102Z,100.00
2023-02-19T00:23:24.980Z,100.00
2023-02-19T00:25:27.715Z,100.00
2023-02-19T00:27:31.859Z,100.00
2023-02-19T00:29:34.559Z,100.00
2023-02-19T00:31:37.520Z,100.00
2023-02-19T00:33:40.395Z,100.00
2023-02-19T00:35:43.089Z,100.00
2023-02-19T00:37:45.796Z,100.00
2023-02-19T00:39:49.237Z,100.00
2023-02-19T00:41:51.956Z,100.00
2023-02-19T00:43:57.838Z,100.00
2023-02-19T00:46:00.578Z,100.00
2023-02-19T00:48:03.710Z,100.00
2023-02-19T00:50:06.860Z,100.00
2023-02-19T00:52:09.608Z,100.00
2023-02-19T00:54:12.848Z,100.00
2023-02-19T00:56:16.248Z,100.00
2023-02-19T00:58:18.934Z,100.00
2023-02-19T01:00:23.116Z,100.00
2023-02-19T01:02:26.878Z,100.00
2023-02-19T01:04:29.831Z,100.00
2023-02-19T01:06:32.766Z,100.00
2023-02-19T01:08:36.325Z,100.00
2023-02-19T01:10:39.036Z,100.00
2023-02-19T01:12:41.782Z,100.00
2023-02-19T01:14:44.549Z,100.00
2023-02-19T01:16:48.676Z,100.00
2023-02-19T01:18:52.305Z,100.00
2023-02-19T01:20:55.050Z,100.00
2023-02-19T01:22:57.775Z,100.00
2023-02-19T01:25:00.614Z,100.00
2023-02-19T01:27:03.330Z,100.00
2023-02-19T01:29:06.089Z,100.00
2023-02-19T01:31:13.878Z,100.00
2023-02-19T01:33:18.172Z,100.00
2023-02-19T01:35:20.884Z,100.00
2023-02-19T01:37:24.040Z,100.00
2023-02-19T01:39:26.768Z,100.00
2023-02-19T01:41:29.524Z,100.00
2023-02-19T01:43:33.873Z,100.00
2023-02-19T01:45:39.797Z,100.00
2023-02-19T01:47:42.596Z,100.00
2023-02-19T01:49:49.968Z,100.00
2023-02-19T01:51:56.953Z,100.00
2023-02-19T01:54:03.520Z,100.00
2023-02-19T01:56:09.274Z,100.00
2023-02-19T01:58:12.177Z,100.00
2023-02-19T02:00:18.215Z,100.00
2023-02-19T02:02:20.997Z,100.00
2023-02-19T02:04:23.836Z,100.00
2023-02-19T02:06:32.432Z,100.00
2023-02-19T02:08:52.748Z,100.00
2023-02-19T02:10:58.333Z,100.00
2023-02-19T02:13:01.061Z,100.00
2023-02-19T02:15:04.246Z,100.00
2023-02-19T02:17:18.668Z,100.00
2023-02-19T02:19:34.192Z,100.00
2023-02-19T02:21:52.983Z,100.00
2023-02-19T02:24:12.968Z,100.00
2023-02-19T02:26:31.546Z,100.00
2023-02-19T02:28:54.677Z,100.00
2023-02-19T02:31:05.284Z,100.00
2023-02-19T02:33:17.957Z,100.00
2023-02-19T02:35:23.534Z,100.00
2023-02-19T02:37:31.345Z,100.00
2023-02-19T02:39:35.062Z,100.00
2023-02-19T02:41:43.736Z,100.00
2023-02-19T02:43:46.668Z,100.00
2023-02-19T02:45:51.350Z,100.00
2023-02-19T02:48:17.940Z,100.00
2023-02-19T02:50:25.533Z,100.00
2023-02-19T02:52:42.931Z,100.00
2023-02-19T02:55:03.904Z,100.00
2023-02-19T02:57:09.609Z,100.00
2023-02-19T02:59:23.274Z,100.00
2023-02-19T03:01:48.813Z,100.00
2023-02-19T03:03:59.240Z,100.00
2023-02-19T03:06:06.746Z,100.00
2023-02-19T03:08:13.624Z,100.00
2023-02-19T03:10:24.174Z,100.00
2023-02-19T03:12:47.773Z,100.00
2023-02-19T03:15:13.328Z,100.00
2023-02-19T03:17:40.723Z,100.00
2023-02-19T03:19:51.642Z,100.00
2023-02-19T03:21:59.603Z,100.00
2023-02-19T03:24:22.622Z,100.00
2023-02-19T03:26:27.814Z,100.00
2023-02-19T03:28:51.561Z,100.00
2023-02-19T03:30:56.447Z,100.00
2023-02-19T03:33:08.184Z,100.00
2023-02-19T03:35:15.899Z,100.00
2023-02-19T03:37:25.237Z,100.00
2023-02-19T03:39:28.929Z,100.00
2023-02-19T03:41:36.424Z,100.00
2023-02-19T03:43:43.412Z,100.00
2023-02-19T03:45:54.505Z,100.00
2023-02-19T03:48:08.790Z,100.00
2023-02-19T03:50:19.220Z,100.00
2023-02-19T03:52:28.567Z,100.00
2023-02-19T03:54:38.564Z,100.00
2023-02-19T03:56:50.153Z,100.00
2023-02-19T03:58:59.415Z,100.00
2023-02-19T04:01:07.187Z,100.00
2023-02-19T04:03:15.724Z,100.00
2023-02-19T04:05:22.759Z,100.00
2023-02-19T04:07:29.203Z,100.00
2023-02-19T04:09:37.973Z,100.00
2023-02-19T04:11:45.381Z,100.00
2023-02-19T04:13:52.043Z,100.00
2023-02-19T04:15:59.195Z,100.00
2023-02-19T04:18:06.905Z,100.00
2023-02-19T04:20:12.401Z,100.00
2023-02-19T04:22:18.007Z,100.00
2023-02-19T04:24:24.301Z,100.00
2023-02-19T04:26:27.382Z,100.00
2023-02-19T04:28:30.266Z,100.00
2023-02-19T04:30:33.136Z,100.00
2023-02-19T04:32:35.932Z,100.00
2023-02-19T04:34:38.766Z,100.00
2023-02-19T04:36:41.492Z,100.00
2023-02-19T04:38:45.583Z,100.00
2023-02-19T04:40:49.005Z,100.00
2023-02-19T04:42:51.831Z,100.00
2023-02-19T04:44:54.658Z,100.00
2023-02-19T04:46:57.414Z,100.00
2023-02-19T04:49:00.156Z,100.00
2023-02-19T04:51:06.765Z,100.00
2023-02-19T04:53:09.651Z,100.00
2023-02-19T04:55:13.753Z,100.00
2023-02-19T04:57:16.609Z,100.00
2023-02-19T04:59:19.529Z,100.00
2023-02-19T05:01:22.276Z,100.00
2023-02-19T05:03:25.036Z,100.00
2023-02-19T05:05:27.821Z,100.00
2023-02-19T05:07:30.628Z,100.00
2023-02-19T05:09:33.432Z,100.00
2023-02-19T05:11:37.565Z,100.00
2023-02-19T05:13:40.811Z,100.00
2023-02-19T05:15:43.700Z,100.00
2023-02-19T05:17:46.521Z,100.00
2023-02-19T05:19:49.352Z,100.00
2023-02-19T05:21:52.111Z,100.00
2023-02-19T05:23:54.883Z,100.00
2023-02-19T05:25:57.633Z,100.00
2023-02-19T05:28:15.632Z,100.00
2023-02-19T05:30:18.716Z,100.00
2023-02-19T05:32:21.480Z,100.00
2023-02-19T05:34:24.247Z,100.00
2023-02-19T05:36:27.126Z,100.00
2023-02-19T05:38:29.924Z,100.00
2023-02-19T05:40:32.962Z,100.00
2023-02-19T05:42:35.697Z,100.00
2023-02-19T05:44:39.804Z,100.00
2023-02-19T05:46:42.555Z,100.00
2023-02-19T05:48:45.301Z,100.00
2023-02-19T05:50:48.009Z,100.00
2023-02-19T05:52:50.768Z,100.00
2023-02-19T05:54:53.652Z,100.00
2023-02-19T05:56:56.554Z,100.00
2023-02-19T05:59:00.144Z,100.00
2023-02-19T06:01:04.233Z,100.00
2023-02-19T06:03:07.052Z,100.00
2023-02-19T06:05:10.473Z,100.00
2023-02-19T06:07:13.421Z,100.00
2023-02-19T06:09:16.146Z,100.00
2023-02-19T06:11:19.273Z,100.00
2023-02-19T06:13:22.053Z,100.00
2023-02-19T06:15:24.833Z,100.00
2023-02-19T06:17:28.903Z,100.00
2023-02-19T06:19:31.656Z,100.00
2023-02-19T06:21:34.469Z,100.00
2023-02-19T06:23:37.943Z,100.00
2023-02-19T06:25:40.763Z,100.00
2023-02-19T06:27:43.527Z,100.00
2023-02-19T06:29:46.512Z,100.00
2023-02-19T06:31:49.479Z,100.00
2023-02-19T06:33:55.048Z,100.00
2023-02-19T06:36:00.420Z,100.00
2023-02-19T06:38:03.333Z,100.00
2023-02-19T06:40:06.833Z,100.00
2023-02-19T06:42:09.534Z,100.00
2023-02-19T06:44:12.317Z,100.00
2023-02-19T06:46:15.458Z,100.00
2023-02-19T06:48:18.313Z,100.00
2023-02-19T06:50:22.400Z,100.00
2023-02-19T06:52:25.103Z,100.00
2023-02-19T06:54:27.859Z,100.00
2023-02-19T06:56:32.574Z,100.00
2023-02-19T06:58:36.000Z,100.00
2023-02-19T07:00:38.743Z,100.00
2023-02-19T07:02:41.478Z,100.00
2023-02-19T07:04:44.234Z,100.00
2023-02-19T07:06:48.306Z,100.00
2023-02-19T07:08:51.794Z,100.00
2023-02-19T07:10:59.229Z,100.00
2023-02-19T07:13:01.976Z,100.00
2023-02-19T07:15:04.981Z,100.00
2023-02-19T07:17:07.730Z,100.00
2023-02-19T07:19:12.140Z,100.00
2023-02-19T07:21:17.094Z,100.00
2023-02-19T07:23:21.296Z,100.00
2023-02-19T07:25:24.014Z,100.00
2023-02-19T07:27:26.727Z,100.00
2023-02-19T07:29:29.457Z,100.00
2023-02-19T07:31:32.296Z,100.00
2023-02-19T07:33:35.170Z,100.00
2023-02-19T07:35:37.952Z,100.00
2023-02-19T07:37:42.424Z,100.00
2023-02-19T07:39:46.602Z,100.00
2023-02-19T07:41:49.357Z,100.00
2023-02-19T07:44:02.044Z,100.00
2023-02-19T07:46:05.061Z,100.00
2023-02-19T07:48:07.877Z,100.00
2023-02-19T07:50:12.960Z,100.00
2023-02-19T07:52:16.704Z,100.00
2023-02-19T07:54:20.920Z,100.00
2023-02-19T07:56:25.019Z,100.00
2023-02-19T07:58:27.791Z,100.00
2023-02-19T08:00:30.635Z,100.00
2023-02-19T08:02:50.942Z,100.00
2023-02-19T08:04:53.644Z,100.00
2023-02-19T08:06:56.363Z,100.00
2023-02-19T08:08:59.185Z,100.00
2023-02-19T08:11:20.058Z,100.00
2023-02-19T08:13:25.202Z,100.00
2023-02-19T08:15:28.152Z,100.00
2023-02-19T08:17:31.194Z,100.00
2023-02-19T08:19:33.945Z,100.00
2023-02-19T08:21:36.669Z,100.00
2023-02-19T08:23:40.272Z,100.00
2023-02-19T08:25:44.073Z,100.00
2023-02-19T08:27:46.960Z,100.00
2023-02-19T08:29:51.095Z,100.00
2023-02-19T08:31:53.841Z,100.00
2023-02-19T08:33:56.562Z,100.00
2023-02-19T08:36:04.582Z,100.00
2023-02-19T08:38:07.790Z,100.00
2023-02-19T08:40:11.567Z,100.00
2023-02-19T08:42:14.262Z,100.00
2023-02-19T08:44:16.966Z,100.00
2023-02-19T08:46:21.289Z,100.00
2023-02-19T08:48:24.038Z,100.00
2023-02-19T08:50:27.748Z,100.00
2023-02-19T08:52:30.489Z,100.00
2023-02-19T08:54:33.229Z,100.00
2023-02-19T08:56:35.951Z,100.00
2023-02-19T08:58:39.081Z,100.00
2023-02-19T09:00:41.787Z,100.00
2023-02-19T09:02:45.953Z,100.00
2023-02-19T09:04:48.652Z,100.00
2023-02-19T09:06:51.685Z,100.00
2023-02-19T09:08:54.444Z,100.00
2023-02-19T09:11:00.985Z,100.00
2023-02-19T09:13:04.222Z,100.00
2023-02-19T09:15:08.338Z,100.00
2023-02-19T09:17:11.105Z,100.00
2023-02-19T09:19:15.228Z,100.00
2023-02-19T09:21:17.957Z,100.00
2023-02-19T09:23:20.688Z,100.00
2023-02-19T09:25:23.415Z,100.00
2023-02-19T09:27:26.189Z,100.00
2023-02-19T09:29:29.917Z,100.00
2023-02-19T09:31:35.232Z,100.00
2023-02-19T09:33:38.399Z,100.00
2023-02-19T09:35:42.468Z,100.00
2023-02-19T09:37:45.441Z,100.00
2023-02-19T09:39:48.174Z,100.00
2023-02-19T09:41:54.473Z,100.00
2023-02-19T09:43:58.708Z,100.00
2023-02-19T09:46:05.451Z,100.00
2023-02-19T09:48:10.287Z,100.00
2023-02-19T09:50:18.317Z,100.00
2023-02-19T09:52:32.445Z,100.00
2023-02-19T09:54:37.502Z,100.00
2023-02-19T09:56:40.392Z,100.00
2023-02-19T09:58:48.739Z,100.00
2023-02-19T10:00:53.228Z,100.00
2023-02-19T10:03:04.943Z,100.00
2023-02-19T10:05:13.815Z,100.00
2023-02-19T10:07:19.103Z,100.00
2023-02-19T10:09:26.737Z,100.00
2023-02-19T10:11:29.640Z,100.00
2023-02-19T10:13:35.706Z,100.00
2023-02-19T10:15:43.537Z,100.00
2023-02-19T10:17:46.236Z,100.00
2023-02-19T10:19:49.022Z,100.00
2023-02-19T10:21:51.895Z,100.00
2023-02-19T10:23:58.449Z,100.00
2023-02-19T10:26:03.008Z,100.00
2023-02-19T10:28:10.908Z,100.00
2023-02-19T10:30:21.913Z,100.00
2023-02-19T10:32:27.479Z,100.00
2023-02-19T10:34:31.014Z,100.00
2023-02-19T10:36:36.839Z,100.00
2023-02-19T10:38:41.682Z,100.00
2023-02-19T10:40:46.037Z,100.00
2023-02-19T10:42:53.057Z,100.00
2023-02-19T10:45:01.683Z,100.00
2023-02-19T10:47:04.934Z,100.00
2023-02-19T10:49:22.904Z,100.00
2023-02-19T10:51:33.087Z,100.00
2023-02-19T10:53:44.735Z,100.00
2023-02-19T10:55:47.735Z,100.00
2023-02-19T10:57:51.858Z,100.00
2023-02-19T10:59:57.592Z,100.00
2023-02-19T11:02:02.545Z,100.00
2023-02-19T11:04:17.010Z,100.00
2023-02-19T11:06:22.897Z,100.00
2023-02-19T11:08:25.821Z,100.00
2023-02-19T11:10:30.959Z,100.00
2023-02-19T11:12:35.701Z,100.00
2023-02-19T11:14:43.537Z,100.00
2023-02-19T11:16:48.790Z,100.00
2023-02-19T11:18:57.280Z,99.43
2023-02-19T11:21:01.901Z,100.00
2023-02-19T11:23:14.904Z,99.48
2023-02-19T11:25:25.428Z,100.00
2023-02-19T11:27:28.588Z,99.70
2023-02-19T11:29:34.781Z,100.00
2023-02-19T11:31:39.003Z,100.00
2023-02-19T11:33:45.503Z,99.83
2023-02-19T11:35:49.197Z,100.00
2023-02-19T11:37:56.933Z,98.79
2023-02-19T11:39:59.849Z,100.00
2023-02-19T11:42:34.979Z,99.21
2023-02-19T11:44:51.556Z,100.00
2023-02-19T11:47:06.189Z,98.08
2023-02-19T11:49:19.815Z,98.92
2023-02-19T11:51:36.248Z,98.64
2023-02-19T11:53:49.654Z,97.59
2023-02-19T11:56:07.805Z,97.83
2023-02-19T11:58:30.702Z,98.60
2023-02-19T12:00:42.079Z,99.05
2023-02-19T12:03:02.737Z,99.78
2023-02-19T12:05:33.851Z,100.00
2023-02-19T12:08:13.918Z,100.00
2023-02-19T12:10:22.729Z,100.00
2023-02-19T12:12:39.450Z,100.00
2023-02-19T12:15:02.761Z,100.00
2023-02-19T12:17:15.630Z,100.00
2023-02-19T12:19:49.151Z,100.00
2023-02-19T12:22:09.526Z,100.00
2023-02-19T12:24:47.336Z,100.00
2023-02-19T12:27:07.163Z,100.00
2023-02-19T12:29:24.958Z,100.00
2023-02-19T12:31:50.829Z,100.00
2023-02-19T12:34:19.859Z,100.00
2023-02-19T12:36:34.955Z,100.00
2023-02-19T12:38:44.957Z,100.00
2023-02-19T12:41:01.777Z,100.00
2023-02-19T12:43:14.651Z,100.00
2023-02-19T12:45:21.544Z,100.00
2023-02-19T12:47:29.409Z,100.00
2023-02-19T12:49:36.636Z,100.00
2023-02-19T12:51:45.646Z,100.00
2023-02-19T12:53:52.847Z,100.00
2023-02-19T12:55:57.715Z,100.00
2023-02-19T12:58:04.314Z,100.00
2023-02-19T13:00:25.678Z,100.00
2023-02-19T13:02:36.140Z,100.00
2023-02-19T13:04:44.776Z,100.00
2023-02-19T13:06:54.670Z,98.44
2023-02-19T13:09:09.093Z,98.63
2023-02-19T13:11:18.290Z,93.75
2023-02-19T13:13:26.668Z,94.81
2023-02-19T13:15:35.328Z,96.64
2023-02-19T13:17:43.848Z,92.83
2023-02-19T13:19:49.551Z,91.64
2023-02-19T13:22:19.251Z,92.74
2023-02-19T13:24:26.495Z,94.64
2023-02-19T13:26:49.081Z,94.16
2023-02-19T13:29:07.532Z,93.80
2023-02-19T13:31:24.956Z,92.45
2023-02-19T13:33:38.310Z,91.92
2023-02-19T13:36:12.079Z,92.61
2023-02-19T13:38:16.631Z,90.18
2023-02-19T13:40:26.747Z,91.07
2023-02-19T13:42:34.088Z,90.93
2023-02-19T13:44:40.993Z,90.35
2023-02-19T13:46:47.128Z,92.40
2023-02-19T13:48:49.939Z,93.22
2023-02-19T13:51:31.347Z,89.71
2023-02-19T13:54:00.583Z,94.62
2023-02-19T13:56:03.509Z,97.17
2023-02-19T13:58:51.634Z,96.54
2023-02-19T14:00:55.001Z,96.23
2023-02-19T14:03:27.922Z,95.16
2023-02-19T14:05:59.172Z,98.50
2023-02-19T14:08:01.900Z,100.00
2023-02-19T14:10:12.080Z,100.00
2023-02-19T14:12:21.844Z,100.00
2023-02-19T14:14:27.436Z,100.00
2023-02-19T14:17:04.665Z,100.00
2023-02-19T14:19:14.945Z,100.00
2023-02-19T14:21:24.735Z,100.00
2023-02-19T14:23:27.546Z,100.00
2023-02-19T14:25:50.352Z,100.00
2023-02-19T14:27:54.399Z,100.00
2023-02-19T14:29:57.249Z,100.00
2023-02-19T14:32:02.139Z,100.00
2023-02-19T14:34:07.539Z,100.00
2023-02-19T14:36:24.321Z,100.00
2023-02-19T14:38:31.470Z,100.00
2023-02-19T14:40:39.334Z,100.00
2023-02-19T14:42:43.534Z,100.00
2023-02-19T14:44:49.900Z,100.00
2023-02-19T14:46:58.089Z,100.00
2023-02-19T14:49:06.540Z,100.00
2023-02-19T14:51:15.986Z,100.00
2023-02-19T14:53:21.528Z,100.00
2023-02-19T14:55:29.211Z,100.00
2023-02-19T14:57:36.748Z,100.00
2023-02-19T14:59:40.891Z,100.00
2023-02-19T15:01:43.717Z,100.00
2023-02-19T15:03:50.532Z,100.00
2023-02-19T15:05:57.956Z,100.00
2023-02-19T15:08:03.360Z,100.00
2023-02-19T15:10:07.051Z,100.00
2023-02-19T15:12:17.071Z,100.00
2023-02-19T15:14:23.742Z,100.00
2023-02-19T15:16:29.001Z,100.00
2023-02-19T15:18:36.178Z,100.00
2023-02-19T15:20:39.690Z,100.00
2023-02-19T15:22:42.772Z,100.00
2023-02-19T15:24:48.507Z,100.00
2023-02-19T15:26:54.063Z,100.00
2023-02-19T15:29:02.087Z,100.00
2023-02-19T15:31:07.770Z,100.00
2023-02-19T15:33:18.536Z,100.00
2023-02-19T15:35:23.928Z,100.00
2023-02-19T15:37:28.967Z,100.00
2023-02-19T15:39:35.736Z,100.00
2023-02-19T15:41:39.168Z,100.00
2023-02-19T15:43:50.632Z,100.00
2023-02-19T15:45:57.383Z,100.00
2023-02-19T15:48:04.597Z,100.00
2023-02-19T15:50:12.960Z,100.00
2023-02-19T15:52:24.472Z,100.00
2023-02-19T15:54:31.485Z,100.00
2023-02-19T15:56:37.583Z,100.00
2023-02-19T15:58:43.845Z,100.00
2023-02-19T16:00:50.284Z,100.00
2023-02-19T16:02:53.257Z,100.00
2023-02-19T16:04:56.347Z,100.00
2023-02-19T16:07:02.193Z,100.00
2023-02-19T16:09:06.613Z,100.00
2023-02-19T16:11:29.192Z,100.00
2023-02-19T16:13:33.932Z,100.00
2023-02-19T16:15:36.909Z,100.00
2023-02-19T16:17:43.695Z,100.00
2023-02-19T16:19:49.718Z,100.00
2023-02-19T16:21:53.659Z,100.00
2023-02-19T16:24:02.686Z,100.00
2023-02-19T16:26:05.773Z,100.00
2023-02-19T16:28:13.881Z,100.00
2023-02-19T16:30:28.053Z,100.00
2023-02-19T16:32:30.843Z,100.00
2023-02-19T16:34:40.729Z,100.00
2023-02-19T16:36:45.469Z,100.00
2023-02-19T16:39:23.331Z,100.00
2023-02-19T16:41:26.169Z,100.00
2023-02-19T16:43:39.776Z,100.00
2023-02-19T16:45:42.650Z,100.00
2023-02-19T16:47:48.351Z,100.00
2023-02-19T16:49:51.238Z,100.00
2023-02-19T16:51:54.664Z,100.00
2023-02-19T16:53:57.437Z,100.00
2023-02-19T16:56:01.567Z,100.00
2023-02-19T16:58:04.323Z,100.00
2023-02-19T17:00:07.705Z,100.00
2023-02-19T17:02:19.274Z,100.00
2023-02-19T17:04:22.038Z,100.00
2023-02-19T17:06:24.839Z,100.00
2023-02-19T17:08:33.807Z,100.00
2023-02-19T17:10:36.525Z,100.00
2023-02-19T17:12:40.609Z,100.00
2023-02-19T17:14:43.553Z,100.00
2023-02-19T17:16:46.313Z,100.00
2023-02-19T17:18:49.314Z,100.00
2023-02-19T17:20:56.271Z,100.00
2023-02-19T17:22:59.116Z,100.00
2023-02-19T17:25:02.235Z,100.00
2023-02-19T17:27:05.216Z,100.00
2023-02-19T17:29:14.351Z,100.00
2023-02-19T17:31:17.450Z,100.00
2023-02-19T17:33:20.238Z,100.00
2023-02-19T17:35:23.172Z,100.00
2023-02-19T17:37:25.906Z,100.00
2023-02-19T17:39:28.762Z,100.00
2023-02-19T17:41:31.801Z,100.00
2023-02-19T17:43:34.810Z,100.00
2023-02-19T17:45:39.610Z,100.00
2023-02-19T17:47:42.509Z,100.00
2023-02-19T17:49:45.258Z,100.00
2023-02-19T17:51:47.997Z,100.00
2023-02-19T17:53:51.019Z,100.00
2023-02-19T17:55:53.829Z,100.00
2023-02-19T17:57:56.667Z,100.00
2023-02-19T17:59:59.416Z,100.00
2023-02-19T18:02:04.090Z,100.00
2023-02-19T18:04:07.143Z,100.00
2023-02-19T18:06:10.070Z,100.00
2023-02-19T18:08:12.976Z,100.00
2023-02-19T18:10:17.961Z,100.00
2023-02-19T18:12:20.769Z,100.00
2023-02-19T18:14:23.593Z,100.00
2023-02-19T18:16:26.396Z,100.00
2023-02-19T18:18:30.717Z,100.00
2023-02-19T18:20:33.526Z,100.00
2023-02-19T18:22:36.296Z,100.00
2023-02-19T18:24:39.892Z,100.00
2023-02-19T18:26:42.647Z,100.00
2023-02-19T18:28:45.409Z,100.00
2023-02-19T18:30:48.308Z,100.00
2023-02-19T18:32:52.061Z,100.00
2023-02-19T18:34:59.242Z,100.00
2023-02-19T18:37:02.249Z,100.00
2023-02-19T18:39:05.307Z,100.00
2023-02-19T18:41:12.505Z,100.00
2023-02-19T18:43:15.570Z,100.00
2023-02-19T18:45:18.779Z,100.00
2023-02-19T18:47:22.913Z,100.00
2023-02-19T18:49:25.789Z,100.00
2023-02-19T18:51:30.066Z,100.00
2023-02-19T18:53:32.806Z,100.00
2023-02-19T18:55:35.630Z,100.00
2023-02-19T18:57:38.523Z,100.00
2023-02-19T18:59:41.931Z,100.00
2023-02-19T19:01:44.981Z,100.00
2023-02-19T19:03:48.028Z,100.00
2023-02-19T19:05:50.858Z,100.00
2023-02-19T19:07:56.474Z,100.00
2023-02-19T19:09:59.297Z,100.00
2023-02-19T19:12:02.587Z,100.00
2023-02-19T19:14:05.620Z,100.00
2023-02-19T19:16:08.432Z,100.00
2023-02-19T19:18:11.245Z,100.00
2023-02-19T19:20:14.952Z,100.00
2023-02-19T19:22:22.656Z,100.00
2023-02-19T19:24:26.945Z,100.00
2023-02-19T19:26:29.723Z,100.00
2023-02-19T19:28:32.736Z,100.00
2023-02-19T19:30:35.488Z,100.00
2023-02-19T19:32:38.628Z,100.00
2023-02-19T19:34:42.770Z,100.00
2023-02-19T19:36:46.310Z,100.00
2023-02-19T19:38:49.526Z,100.00
2023-02-19T19:40:53.674Z,100.00
2023-02-19T19:42:56.435Z,100.00
2023-02-19T19:44:59.583Z,100.00
2023-02-19T19:47:02.298Z,100.00
2023-02-19T19:49:05.099Z,100.00
2023-02-19T19:51:08.062Z,100.00
2023-02-19T19:53:10.752Z,100.00
2023-02-19T19:55:13.519Z,100.00
2023-02-19T19:57:18.144Z,100.00
2023-02-19T19:59:21.359Z,100.00
2023-02-19T20:01:24.274Z,100.00
2023-02-19T20:03:27.214Z,100.00
2023-02-19T20:05:30.032Z,100.00
2023-02-19T20:07:32.786Z,100.00
2023-02-19T20:09:35.601Z,100.00
2023-02-19T20:11:45.159Z,100.00
2023-02-19T20:13:49.274Z,100.00
2023-02-19T20:15:52.413Z,100.00
2023-02-19T20:17:55.225Z,100.00
2023-02-19T20:19:57.989Z,100.00
2023-02-19T20:22:00.700Z,100.00
2023-02-19T20:24:03.633Z,100.00
2023-02-19T20:26:06.557Z,100.00
2023-02-19T20:28:09.333Z,100.00
2023-02-19T20:30:15.753Z,100.00
2023-02-19T20:32:19.402Z,100.00
2023-02-19T20:34:23.877Z,100.00
2023-02-19T20:36:28.450Z,100.00
2023-02-19T20:38:31.303Z,100.00
2023-02-19T20:40:35.325Z,100.00
2023-02-19T20:42:38.182Z,100.00
2023-02-19T20:44:43.768Z,100.00
2023-02-19T20:46:49.723Z,100.00
2023-02-19T20:48:52.646Z,100.00
2023-02-19T20:50:59.234Z,100.00
2023-02-19T20:53:02.080Z,100.00
2023-02-19T20:55:05.801Z,100.00
2023-02-19T20:57:08.580Z,100.00
2023-02-19T20:59:11.747Z,100.00
2023-02-19T21:01:14.492Z,100.00
2023-02-19T21:03:18.633Z,100.00
2023-02-19T21:05:21.718Z,100.00
2023-02-19T21:07:24.720Z,100.00
2023-02-19T21:09:28.459Z,100.00
2023-02-19T21:11:31.410Z,100.00
2023-02-19T21:13:35.113Z,100.00
2023-02-19T21:15:37.909Z,100.00
2023-02-19T21:17:40.671Z,100.00
2023-02-19T21:19:45.070Z,100.00
2023-02-19T21:21:47.866Z,100.00
2023-02-19T21:23:50.643Z,100.00
2023-02-19T21:25:54.684Z,100.00
2023-02-19T21:27:57.512Z,100.00
2023-02-19T21:30:00.547Z,100.00
2023-02-19T21:32:03.386Z,100.00
2023-02-19T21:34:07.161Z,100.00
2023-02-19T21:36:11.875Z,100.00
2023-02-19T21:38:14.804Z,100.00
2023-02-19T21:40:17.579Z,100.00
2023-02-19T21:42:20.308Z,100.00
2023-02-19T21:44:23.335Z,100.00
2023-02-19T21:46:26.816Z,100.00
2023-02-19T21:48:29.678Z,100.00
2023-02-19T21:50:32.406Z,100.00
2023-02-19T21:52:36.546Z,100.00
2023-02-19T21:54:39.379Z,100.00
2023-02-19T21:56:42.234Z,100.00
2023-02-19T21:58:44.985Z,100.00
2023-02-19T22:00:47.754Z,100.00
2023-02-19T22:02:50.605Z,100.00
2023-02-19T22:04:54.600Z,100.00
2023-02-19T22:06:58.119Z,100.00
2023-02-19T22:09:03.197Z,100.00
2023-02-19T22:11:06.247Z,100.00
2023-02-19T22:13:09.061Z,100.00
2023-02-19T22:15:11.867Z,100.00
2023-02-19T22:17:14.983Z,100.00
2023-02-19T22:19:17.718Z,100.00
2023-02-19T22:21:21.560Z,100.00
2023-02-19T22:23:24.402Z,100.00
2023-02-19T22:25:28.498Z,100.00
2023-02-19T22:27:31.252Z,100.00
2023-02-19T22:29:34.084Z,100.00
2023-02-19T22:31:36.962Z,100.00
2023-02-19T22:33:39.776Z,100.00
2023-02-19T22:35:42.970Z,100.00
2023-02-19T22:37:45.770Z,100.00
2023-02-19T22:39:48.620Z,100.00
2023-02-19T22:41:53.549Z,100.00
2023-02-19T22:43:56.778Z,100.00
2023-02-19T22:45:59.626Z,100.00
2023-02-19T22:48:02.488Z,100.00
2023-02-19T22:50:05.515Z,100.00
2023-02-19T22:52:10.651Z,100.00
2023-02-19T22:54:13.383Z,100.00
2023-02-19T22:56:17.673Z,100.00
2023-02-19T22:58:21.857Z,100.00
2023-02-19T23:00:24.701Z,100.00
2023-02-19T23:02:27.513Z,100.00
2023-02-19T23:04:30.332Z,100.00
2023-02-19T23:06:34.804Z,100.00
2023-02-19T23:08:37.677Z,100.00
2023-02-19T23:10:40.929Z,100.00
2023-02-19T23:12:43.694Z,100.00
2023-02-19T23:14:48.572Z,100.00
2023-02-19T23:16:51.392Z,100.00
2023-02-19T23:18:54.478Z,100.00
2023-02-19T23:20:57.292Z,100.00
2023-02-19T23:23:00.069Z,100.00
2023-02-19T23:25:03.423Z,100.00
2023-02-19T23:27:06.152Z,100.00
2023-02-19T23:29:08.944Z,100.00
2023-02-19T23:31:14.089Z,100.00
2023-02-19T23:33:17.348Z,100.00
2023-02-19T23:35:20.085Z,100.00
2023-02-19T23:37:22.780Z,100.00
2023-02-19T23:39:25.728Z,100.00
2023-02-19T23:41:28.475Z,100.00
2023-02-19T23:43:31.318Z,100.00
2023-02-19T23:45:34.070Z,100.00
2023-02-19T23:47:38.133Z,100.00
2023-02-19T23:49:40.977Z,100.00
2023-02-19T23:51:43.810Z,100.00
2023-02-19T23:53:46.533Z,100.00
2023-02-19T23:55:49.278Z,100.00
2023-02-19T23:57:53.438Z,100.00
2023-02-19T23:59:56.305Z,100.00
